Saint Cloud, Minnesota
Current Conditions -  °F | °C
As of 10:53 PM on Wednesday 22 Oct 2014 (Local Time) from KSTC Reporting Station
Overcast Overcast  
Wind Chill: 57°   Ceiling: 4600
Heat Index: 57°   Visibility: 10mi
Dew Point: 44°   Wind: 12mph
Humidity: 62%   Direction: 160°SSE
Pressure: 30"   Gusts: NA
Location:  45.55°N, 94.06°W
Report Text: KSTC 230353Z AUTO 16010KT 10SM FEW038 BKN046 OVC095 14/07 A3000 RMK AO2 RAB16E43 SLP167 P0000 T01390067
Loading
Personal Weather Stations






























Interactive Weather Map
Tropical Storm Tracking
New forecast layout! Learn more

10-Day Weather Forecast

Advertisements
Track Severe Weather on mobile